createdAt,value
2022-08-26T00:00:05.000Z,23.12
2022-08-26T00:00:15.000Z,22.23
2022-08-26T00:02:29.000Z,23.17
2022-08-26T00:04:53.000Z,22.33
2022-08-26T00:07:20.000Z,21.95
2022-08-26T00:09:47.000Z,22.62
2022-08-26T00:12:14.000Z,22.37
2022-08-26T00:14:36.000Z,22.37
2022-08-26T00:14:43.000Z,22.37
2022-08-26T00:17:06.000Z,22.52
2022-08-26T00:19:31.000Z,23.2
2022-08-26T00:21:54.000Z,22.55
2022-08-26T00:24:20.000Z,22.45
2022-08-26T00:26:48.000Z,23.15
2022-08-26T00:29:12.000Z,23.2
2022-08-26T00:31:37.000Z,23.2
2022-08-26T00:34:03.000Z,23.57
2022-08-26T00:36:29.000Z,23.32
2022-08-26T00:38:55.000Z,23.27
2022-08-26T00:41:23.000Z,23.13
2022-08-26T00:43:47.000Z,23.52
2022-08-26T00:46:13.000Z,24.5
2022-08-26T00:48:41.000Z,24.4
2022-08-26T00:51:05.000Z,23.67
2022-08-26T00:53:34.000Z,23.5
2022-08-26T00:55:58.000Z,23.1
2022-08-26T00:58:24.000Z,25.2
2022-08-26T01:00:54.000Z,24.6
2022-08-26T01:03:16.000Z,25.08
2022-08-26T01:05:47.000Z,23.65
2022-08-26T01:08:10.000Z,23.65
2022-08-26T01:08:18.000Z,24.2
2022-08-26T01:10:34.000Z,24.47
2022-08-26T01:13:02.000Z,24.37
2022-08-26T01:15:27.000Z,25.12
2022-08-26T01:20:19.000Z,27.13
2022-08-26T01:22:44.000Z,26.97
2022-08-26T01:25:11.000Z,27.65
2022-08-26T01:27:36.000Z,26.65
2022-08-26T01:30:03.000Z,26.65
2022-08-26T01:30:12.000Z,26.2
2022-08-26T01:32:28.000Z,27.1
2022-08-26T01:34:54.000Z,28.92
2022-08-26T01:37:21.000Z,27.2
2022-08-26T01:39:47.000Z,27.75
2022-08-26T01:42:11.000Z,27.93
2022-08-26T01:44:38.000Z,27.73
2022-08-26T01:47:04.000Z,28.42
2022-08-26T01:49:30.000Z,27.7
2022-08-26T01:51:56.000Z,28.13
2022-08-26T01:54:22.000Z,28.3
2022-08-26T01:56:48.000Z,28.83
2022-08-26T01:59:14.000Z,31.23
2022-08-26T02:01:42.000Z,29.35
2022-08-26T02:04:05.000Z,30.05
2022-08-26T02:06:32.000Z,29.82
2022-08-26T02:08:57.000Z,29.8
2022-08-26T02:11:23.000Z,29.57
2022-08-26T02:13:49.000Z,29.57
2022-08-26T02:13:57.000Z,28.87
2022-08-26T02:16:15.000Z,28.98
2022-08-26T02:18:41.000Z,29.23
2022-08-26T02:21:09.000Z,30.1
2022-08-26T02:23:33.000Z,29.03
2022-08-26T02:26:04.000Z,29.25
2022-08-26T02:28:23.000Z,29.25
2022-08-26T02:28:33.000Z,29.07
2022-08-26T02:30:50.000Z,30.43
2022-08-26T02:33:17.000Z,31.12
2022-08-26T02:35:42.000Z,30.37
2022-08-26T02:38:07.000Z,29.72
2022-08-26T02:40:36.000Z,30.9
2022-08-26T02:43:02.000Z,30.17
2022-08-26T02:45:26.000Z,30.17
2022-08-26T02:45:36.000Z,29.1
2022-08-26T02:47:53.000Z,27.98
2022-08-26T02:50:19.000Z,28.73
2022-08-26T02:52:44.000Z,28.05
2022-08-26T02:55:11.000Z,28.65
2022-08-26T02:57:38.000Z,28.13
2022-08-26T03:00:04.000Z,29.25
2022-08-26T03:04:54.000Z,27.4
2022-08-26T03:07:20.000Z,27.4
2022-08-26T03:07:28.000Z,28.65
2022-08-26T03:09:46.000Z,29.23
2022-08-26T03:12:12.000Z,29.23
2022-08-26T03:12:20.000Z,29.95
2022-08-26T03:15:33.000Z,28.33
2022-08-26T03:17:32.000Z,29.17
2022-08-26T03:19:30.000Z,28.42
2022-08-26T03:21:56.000Z,28.42
2022-08-26T03:22:03.000Z,30.1
2022-08-26T03:24:22.000Z,29.18
2022-08-26T03:26:49.000Z,30.8
2022-08-26T03:29:21.000Z,31.97
2022-08-26T03:31:46.000Z,31.97
2022-08-26T03:31:53.000Z,31.12
2022-08-26T03:34:13.000Z,31.05
2022-08-26T03:36:39.000Z,31.05
2022-08-26T03:39:05.000Z,31.05
2022-08-26T03:39:12.000Z,31.52
2022-08-26T03:39:20.000Z,32.4
2022-08-26T03:41:31.000Z,31.45
2022-08-26T03:43:56.000Z,33.4
2022-08-26T03:46:28.000Z,33.4
2022-08-26T03:46:37.000Z,33.5
2022-08-26T03:48:48.000Z,35.55
2022-08-26T03:51:16.000Z,34
2022-08-26T03:53:40.000Z,34
2022-08-26T03:56:10.000Z,36.88
2022-08-26T03:58:34.000Z,35.78
2022-08-26T04:06:41.000Z,31.95
2022-08-26T04:09:04.000Z,32.03
2022-08-26T04:11:34.000Z,32.23
2022-08-26T04:13:56.000Z,31.1
2022-08-26T04:16:22.000Z,29.57
2022-08-26T04:18:48.000Z,29.83
2022-08-26T04:21:14.000Z,28.23
2022-08-26T04:23:40.000Z,27.45
2022-08-26T04:26:05.000Z,27.45
2022-08-26T04:26:13.000Z,27.87
2022-08-26T04:28:34.000Z,28.67
2022-08-26T04:31:10.000Z,25.62
2022-08-26T04:33:24.000Z,25.57
2022-08-26T04:35:50.000Z,25.57
2022-08-26T04:35:59.000Z,23.4
2022-08-26T04:38:17.000Z,24.82
2022-08-26T04:40:46.000Z,23.47
2022-08-26T04:43:12.000Z,25.23
2022-08-26T04:45:43.000Z,25.27
2022-08-26T04:48:04.000Z,26.37
2022-08-26T04:50:36.000Z,26.37
2022-08-26T04:50:46.000Z,25.4
2022-08-26T04:52:59.000Z,25.4
2022-08-26T04:53:08.000Z,26.33
2022-08-26T04:55:21.000Z,26.85
2022-08-26T04:57:45.000Z,26.85
2022-08-26T04:57:53.000Z,27.1
2022-08-26T05:00:30.000Z,25.95
2022-08-26T05:02:46.000Z,26.9
2022-08-26T05:05:05.000Z,26.9
2022-08-26T05:05:12.000Z,29.57
2022-08-26T05:07:30.000Z,29.85
2022-08-26T05:09:56.000Z,29.63
2022-08-26T05:12:22.000Z,27.93
2022-08-26T05:14:49.000Z,28.95
2022-08-26T05:17:15.000Z,30.57
2022-08-26T05:19:40.000Z,27.62
2022-08-26T05:22:07.000Z,27.62
2022-08-26T05:22:15.000Z,26.95
2022-08-26T05:24:33.000Z,28.47
2022-08-26T05:26:59.000Z,27.62
2022-08-26T05:29:24.000Z,27.62
2022-08-26T05:29:31.000Z,28.27
2022-08-26T05:31:50.000Z,29.4
2022-08-26T05:34:16.000Z,31.53
2022-08-26T05:36:42.000Z,31.53
2022-08-26T05:36:49.000Z,30.97
2022-08-26T05:39:11.000Z,29.07
2022-08-26T05:41:34.000Z,29.53
2022-08-26T05:44:02.000Z,29.53
2022-08-26T05:44:09.000Z,29.73
2022-08-26T05:46:28.000Z,30
2022-08-26T05:48:52.000Z,30.5
2022-08-26T05:51:18.000Z,29.5
2022-08-26T05:53:44.000Z,29.5
2022-08-26T05:56:11.000Z,29.5
2022-08-26T05:56:18.000Z,30.63
2022-08-26T05:56:26.000Z,32.13
2022-08-26T05:58:36.000Z,33.3
2022-08-26T06:01:14.000Z,33.3
2022-08-26T06:01:23.000Z,34.48
2022-08-26T06:03:27.000Z,32.1
2022-08-26T06:05:52.000Z,31.53
2022-08-26T06:08:18.000Z,32.13
2022-08-26T06:10:45.000Z,32.95
2022-08-26T06:13:10.000Z,32.5
2022-08-26T06:15:42.000Z,32.73
2022-08-26T06:18:07.000Z,32.4
2022-08-26T06:20:32.000Z,30.6
2022-08-26T06:22:58.000Z,31.27
2022-08-26T06:25:23.000Z,29
2022-08-26T06:27:49.000Z,28.92
2022-08-26T06:30:25.000Z,27.82
2022-08-26T06:32:40.000Z,27.45
2022-08-26T06:37:34.000Z,27.95
2022-08-26T06:40:01.000Z,27.87
2022-08-26T06:42:26.000Z,27.87
2022-08-26T06:42:33.000Z,28.4
2022-08-26T06:44:54.000Z,28.3
2022-08-26T06:47:19.000Z,27.35
2022-08-26T06:49:44.000Z,28.57
2022-08-26T06:52:11.000Z,25.12
2022-08-26T06:54:38.000Z,25.12
2022-08-26T06:54:47.000Z,24.45
2022-08-26T06:57:03.000Z,24.45
2022-08-26T06:59:30.000Z,24.1
2022-08-26T07:01:55.000Z,24.67
2022-08-26T07:04:29.000Z,24.52
2022-08-26T07:06:45.000Z,24.87
2022-08-26T07:09:12.000Z,23.57
2022-08-26T07:11:37.000Z,24.7
2022-08-26T07:14:06.000Z,24.95
2022-08-26T07:16:30.000Z,25.85
2022-08-26T07:18:57.000Z,26.07
2022-08-26T07:21:22.000Z,26.07
2022-08-26T07:21:31.000Z,26.6
2022-08-26T07:23:48.000Z,24.18
2022-08-26T07:26:13.000Z,24.18
2022-08-26T07:26:21.000Z,25.05
2022-08-26T07:28:41.000Z,25.27
2022-08-26T07:31:16.000Z,26.62
2022-08-26T07:33:33.000Z,25.35
2022-08-26T07:35:59.000Z,25.9
2022-08-26T07:38:23.000Z,27.33
2022-08-26T07:40:54.000Z,27.33
2022-08-26T07:41:02.000Z,26
2022-08-26T07:43:19.000Z,26.55
2022-08-26T07:45:44.000Z,26.55
2022-08-26T07:45:52.000Z,26.7
2022-08-26T07:48:08.000Z,26.95
2022-08-26T08:05:14.000Z,26.95
2022-08-26T08:05:23.000Z,26.95
2022-08-26T08:07:38.000Z,26.95
2022-08-26T08:07:50.000Z,27.2
2022-08-26T08:08:09.000Z,28.5
2022-08-26T08:08:09.000Z,27.63
2022-08-26T08:08:23.000Z,27.6
2022-08-26T08:08:41.000Z,29.3
2022-08-26T08:08:41.000Z,29.3
2022-08-26T08:08:51.000Z,30.95
2022-08-26T08:08:59.000Z,29.87
2022-08-26T08:10:04.000Z,34.27
2022-08-26T08:12:29.000Z,32.4
2022-08-26T08:14:55.000Z,31.57
2022-08-26T08:17:23.000Z,31.8
2022-08-26T08:19:50.000Z,32.85
2022-08-26T08:22:18.000Z,33.28
2022-08-26T08:24:42.000Z,33.28
2022-08-26T08:24:51.000Z,33.1
2022-08-26T08:27:07.000Z,33.6
2022-08-26T08:29:34.000Z,34.67
2022-08-26T08:31:58.000Z,33.48
2022-08-26T08:34:24.000Z,38.63
2022-08-26T08:36:50.000Z,36.07
2022-08-26T08:39:18.000Z,36.42
2022-08-26T08:41:43.000Z,39.85
2022-08-26T08:44:07.000Z,38.7
2022-08-26T08:46:35.000Z,38.5
2022-08-26T08:49:00.000Z,37.2
2022-08-26T08:51:26.000Z,36.58
2022-08-26T08:53:54.000Z,38.27
2022-08-26T08:56:17.000Z,39.33
2022-08-26T08:58:43.000Z,39.83
2022-08-26T09:01:15.000Z,37.38
2022-08-26T09:03:36.000Z,40.9
2022-08-26T09:06:02.000Z,39.13
2022-08-26T09:08:27.000Z,38.35
2022-08-26T09:10:52.000Z,40.35
2022-08-26T09:13:18.000Z,42.17
2022-08-26T09:15:46.000Z,42.17
2022-08-26T09:15:55.000Z,42.33
2022-08-26T09:18:14.000Z,43.25
2022-08-26T09:20:38.000Z,41.13
2022-08-26T09:23:05.000Z,40.63
2022-08-26T09:25:30.000Z,40.23
2022-08-26T09:27:55.000Z,40.23
2022-08-26T09:28:05.000Z,42
2022-08-26T09:30:28.000Z,38.53
2022-08-26T09:32:47.000Z,40.73
2022-08-26T09:35:15.000Z,40.73
2022-08-26T09:35:24.000Z,42.48
2022-08-26T09:40:06.000Z,43.1
2022-08-26T09:42:31.000Z,40.5
2022-08-26T09:44:56.000Z,41.88
2022-08-26T09:47:23.000Z,41.67
2022-08-26T09:49:49.000Z,41.13
2022-08-26T09:52:19.000Z,41.92
2022-08-26T09:54:47.000Z,44.77
2022-08-26T09:57:21.000Z,40.25
2022-08-26T09:59:40.000Z,42.23
2022-08-26T10:02:11.000Z,41
2022-08-26T10:04:32.000Z,41.03
2022-08-26T10:06:59.000Z,39.13
2022-08-26T10:09:26.000Z,41.35
2022-08-26T10:11:51.000Z,42.43
2022-08-26T10:14:17.000Z,39.3
2022-08-26T10:16:43.000Z,41.83
2022-08-26T10:19:08.000Z,40.78
2022-08-26T10:21:34.000Z,41.37
2022-08-26T10:24:00.000Z,40.55
2022-08-26T10:26:28.000Z,42.25
2022-08-26T10:28:57.000Z,42.17
2022-08-26T10:31:26.000Z,41.33
2022-08-26T10:33:51.000Z,41.33
2022-08-26T10:36:16.000Z,41.33
2022-08-26T10:36:26.000Z,41.8
2022-08-26T10:38:42.000Z,41.8
2022-08-26T10:38:50.000Z,39.25
2022-08-26T10:41:11.000Z,39.25
2022-08-26T10:41:22.000Z,38.4
2022-08-26T10:41:31.000Z,39.42
2022-08-26T10:43:37.000Z,40.23
2022-08-26T10:46:03.000Z,41.53
2022-08-26T10:48:29.000Z,41.7
2022-08-26T10:50:55.000Z,41.7
2022-08-26T10:51:03.000Z,45.48
2022-08-26T10:53:25.000Z,51.8
2022-08-26T10:55:51.000Z,56.02
2022-08-26T10:58:25.000Z,57.62
2022-08-26T11:00:55.000Z,57.62
2022-08-26T11:03:13.000Z,57.62
2022-08-26T11:03:27.000Z,57.6
2022-08-26T11:03:33.000Z,54.42
2022-08-26T11:05:39.000Z,52.95
2022-08-26T11:10:38.000Z,52.45
2022-08-26T11:12:57.000Z,52.45
2022-08-26T11:13:06.000Z,50.52
2022-08-26T11:13:15.000Z,50.73
2022-08-26T11:17:57.000Z,50.35
2022-08-26T11:20:24.000Z,50.35
2022-08-26T11:20:34.000Z,45.17
2022-08-26T11:22:46.000Z,43.68
2022-08-26T11:25:15.000Z,42.35
2022-08-26T11:27:42.000Z,42.35
2022-08-26T11:27:49.000Z,41.05
2022-08-26T11:32:33.000Z,36.8
2022-08-26T11:34:59.000Z,37.43
2022-08-26T11:37:24.000Z,37.63
2022-08-26T11:39:56.000Z,35.95
2022-08-26T11:42:23.000Z,36.2
2022-08-26T11:44:50.000Z,36.2
2022-08-26T11:44:59.000Z,33.73
2022-08-26T11:47:18.000Z,33.73
2022-08-26T11:47:27.000Z,35.78
2022-08-26T11:49:45.000Z,35.78
2022-08-26T11:49:54.000Z,34.8
2022-08-26T11:52:10.000Z,35.52
2022-08-26T11:54:39.000Z,34.03
2022-08-26T11:57:05.000Z,34.53
2022-08-26T11:59:40.000Z,32.05
2022-08-26T12:02:03.000Z,32.05
2022-08-26T12:02:13.000Z,33.75
2022-08-26T12:04:24.000Z,34.3
2022-08-26T12:06:50.000Z,35.73
2022-08-26T12:09:19.000Z,33.1
2022-08-26T12:11:44.000Z,33.95
2022-08-26T12:14:11.000Z,32.17
2022-08-26T12:16:37.000Z,34.33
2022-08-26T12:19:06.000Z,31.8
2022-08-26T12:21:39.000Z,34.37
2022-08-26T12:24:04.000Z,34.53
2022-08-26T12:26:29.000Z,34.23
2022-08-26T12:28:54.000Z,35.17
2022-08-26T12:31:25.000Z,35.17
2022-08-26T12:31:34.000Z,34.45
2022-08-26T12:36:18.000Z,35.17
2022-08-26T12:38:43.000Z,36.13
2022-08-26T12:41:11.000Z,38.02
2022-08-26T12:43:36.000Z,37.45
2022-08-26T12:46:02.000Z,35.73
2022-08-26T12:48:29.000Z,35.73
2022-08-26T12:48:38.000Z,37.9
2022-08-26T12:50:55.000Z,38.7
2022-08-26T12:53:21.000Z,39.05
2022-08-26T12:55:49.000Z,39.5
2022-08-26T12:58:19.000Z,39.65
2022-08-26T13:00:52.000Z,40.98
2022-08-26T13:03:16.000Z,42
2022-08-26T13:05:46.000Z,42.53
2022-08-26T13:08:12.000Z,44.6
2022-08-26T13:10:38.000Z,42.08
2022-08-26T13:13:03.000Z,43.48
2022-08-26T13:15:31.000Z,41.6
2022-08-26T13:18:00.000Z,40.88
2022-08-26T13:20:30.000Z,41.65
2022-08-26T13:23:06.000Z,39.83
2022-08-26T13:25:38.000Z,38.73
2022-08-26T13:28:05.000Z,41.97
2022-08-26T13:30:41.000Z,40.58
2022-08-26T13:33:07.000Z,41.5
2022-08-26T13:35:34.000Z,41.5
2022-08-26T13:35:45.000Z,40.67
2022-08-26T13:37:58.000Z,41.13
2022-08-26T13:40:30.000Z,41.35
2022-08-26T13:42:56.000Z,41.35
2022-08-26T13:43:06.000Z,41.33
2022-08-26T13:45:22.000Z,41.33
2022-08-26T13:45:31.000Z,39.83
2022-08-26T13:47:49.000Z,38.98
2022-08-26T13:50:20.000Z,39.88
2022-08-26T13:52:47.000Z,40.7
2022-08-26T13:55:16.000Z,39.7
2022-08-26T13:57:41.000Z,40
2022-08-26T14:00:08.000Z,40.08
2022-08-26T14:02:32.000Z,39.55
2022-08-26T14:04:57.000Z,38.2
2022-08-26T14:07:28.000Z,36.65
2022-08-26T14:12:25.000Z,35.37
2022-08-26T14:14:54.000Z,34.25
2022-08-26T14:17:20.000Z,35.4
2022-08-26T14:19:50.000Z,35.4
2022-08-26T14:19:58.000Z,35.65
2022-08-26T14:22:20.000Z,34.7
2022-08-26T14:24:42.000Z,35.15
2022-08-26T14:27:09.000Z,34.1
2022-08-26T14:29:40.000Z,34.55
2022-08-26T14:32:04.000Z,34.95
2022-08-26T14:34:30.000Z,35.6
2022-08-26T14:36:55.000Z,34.83
2022-08-26T14:39:23.000Z,34.83
2022-08-26T14:39:31.000Z,38.45
2022-08-26T14:41:49.000Z,38.23
2022-08-26T14:44:15.000Z,38.23
2022-08-26T14:44:25.000Z,36.2
2022-08-26T14:46:42.000Z,36.38
2022-08-26T14:49:07.000Z,37.48
2022-08-26T14:51:35.000Z,38.13
2022-08-26T14:54:08.000Z,38.2
2022-08-26T14:56:53.000Z,38.28
2022-08-26T14:59:13.000Z,38.83
2022-08-26T15:01:38.000Z,39.53
2022-08-26T15:03:56.000Z,37.75
2022-08-26T15:06:29.000Z,35.38
2022-08-26T15:08:53.000Z,34.55
2022-08-26T15:11:19.000Z,33.48
2022-08-26T15:13:47.000Z,32.8
2022-08-26T15:16:23.000Z,32.93
2022-08-26T15:18:42.000Z,32.93
2022-08-26T15:18:49.000Z,33.25
2022-08-26T15:21:05.000Z,33.25
2022-08-26T15:21:14.000Z,31.9
2022-08-26T15:23:32.000Z,31.27
2022-08-26T15:25:58.000Z,30.62
2022-08-26T15:28:24.000Z,31.33
2022-08-26T15:30:52.000Z,30.15
2022-08-26T15:33:18.000Z,30.95
2022-08-26T15:35:42.000Z,29.67
2022-08-26T15:38:12.000Z,29.72
2022-08-26T15:40:36.000Z,30.9
2022-08-26T15:43:09.000Z,28.92
2022-08-26T15:45:42.000Z,28.92
2022-08-26T15:45:52.000Z,28.77
2022-08-26T15:47:53.000Z,27.87
2022-08-26T15:50:19.000Z,27.87
2022-08-26T15:50:28.000Z,26.97
2022-08-26T15:52:49.000Z,27.15
2022-08-26T15:55:14.000Z,25.63
2022-08-26T15:57:40.000Z,25.3
2022-08-26T16:00:13.000Z,24.02
2022-08-26T16:02:33.000Z,23.47
2022-08-26T16:04:58.000Z,23.33
2022-08-26T16:07:24.000Z,21.07
2022-08-26T16:09:50.000Z,20.92
2022-08-26T16:14:41.000Z,19.25
2022-08-26T16:17:23.000Z,19.25
2022-08-26T16:17:34.000Z,19.2
2022-08-26T16:19:34.000Z,18.9
2022-08-26T16:21:58.000Z,19.3
2022-08-26T16:24:24.000Z,18.87
2022-08-26T16:26:51.000Z,18.87
2022-08-26T16:27:02.000Z,17.98
2022-08-26T16:31:42.000Z,18.17
2022-08-26T16:34:08.000Z,17.23
2022-08-26T16:36:33.000Z,16.93
2022-08-26T16:38:59.000Z,15.97
2022-08-26T16:41:35.000Z,15.53
2022-08-26T16:43:51.000Z,16.2
2022-08-26T16:46:16.000Z,15.35
2022-08-26T16:48:42.000Z,15.7
2022-08-26T16:51:09.000Z,16.3
2022-08-26T16:53:34.000Z,15.23
2022-08-26T16:56:02.000Z,15.83
2022-08-26T16:58:26.000Z,15.4
2022-08-26T17:01:02.000Z,15.45
2022-08-26T17:03:46.000Z,15.45
2022-08-26T17:03:57.000Z,15.27
2022-08-26T17:23:43.000Z,15.63
2022-08-26T17:24:23.000Z,15.63
2022-08-26T17:24:33.000Z,15.63
2022-08-26T17:24:43.000Z,15.65
2022-08-26T17:24:53.000Z,14.58
2022-08-26T17:25:03.000Z,14.9
2022-08-26T17:25:11.000Z,14.6
2022-08-26T17:25:21.000Z,13.55
2022-08-26T17:25:30.000Z,14.18
2022-08-26T17:25:49.000Z,13.4
2022-08-26T17:27:37.000Z,13.63
2022-08-26T17:30:05.000Z,13.4
2022-08-26T17:32:29.000Z,13.78
2022-08-26T17:34:55.000Z,13.95
2022-08-26T17:37:21.000Z,13.62
2022-08-26T17:39:47.000Z,13.88
2022-08-26T17:42:13.000Z,14.7
2022-08-26T17:44:39.000Z,14.7
2022-08-26T17:47:05.000Z,14.7
2022-08-26T17:47:14.000Z,14.6
2022-08-26T17:47:23.000Z,14.2
2022-08-26T17:49:32.000Z,13.8
2022-08-26T17:51:57.000Z,14.18
2022-08-26T17:54:23.000Z,14.18
2022-08-26T17:54:33.000Z,13.97
2022-08-26T17:56:49.000Z,13.53
2022-08-26T17:59:15.000Z,14.3
2022-08-26T18:01:41.000Z,14.3
2022-08-26T18:01:48.000Z,13.98
2022-08-26T18:04:08.000Z,14.5
2022-08-26T18:06:34.000Z,14.1
2022-08-26T18:08:59.000Z,14.18
2022-08-26T18:11:25.000Z,13.6
2022-08-26T18:16:17.000Z,13.22
2022-08-26T18:18:43.000Z,12.33
2022-08-26T18:21:09.000Z,13.05
2022-08-26T18:23:35.000Z,12.8
2022-08-26T18:26:02.000Z,13.5
2022-08-26T18:28:27.000Z,13.5
2022-08-26T18:28:35.000Z,13.55
2022-08-26T18:30:54.000Z,13.88
2022-08-26T18:33:19.000Z,12.82
2022-08-26T18:35:45.000Z,12.55
2022-08-26T18:38:14.000Z,13.05
2022-08-26T18:40:38.000Z,13.35
2022-08-26T18:43:04.000Z,13.48
2022-08-26T18:45:28.000Z,12.53
2022-08-26T18:47:54.000Z,12.58
2022-08-26T18:50:24.000Z,12.1
2022-08-26T18:52:49.000Z,12.35
2022-08-26T18:55:14.000Z,11.5
2022-08-26T18:57:43.000Z,11.5
2022-08-26T18:57:52.000Z,11.6
2022-08-26T19:00:09.000Z,11
2022-08-26T19:02:31.000Z,10.13
2022-08-26T19:04:57.000Z,10.13
2022-08-26T19:05:06.000Z,10.6
2022-08-26T19:07:24.000Z,11.2
2022-08-26T19:09:48.000Z,11.2
2022-08-26T19:12:15.000Z,11.2
2022-08-26T19:12:25.000Z,10.9
2022-08-26T19:12:34.000Z,11.05
2022-08-26T19:14:41.000Z,11.1
2022-08-26T19:31:45.000Z,11.1
2022-08-26T19:31:55.000Z,11.1
2022-08-26T19:32:04.000Z,11.45
2022-08-26T19:32:13.000Z,11.8
2022-08-26T19:32:23.000Z,11.75
2022-08-26T19:32:31.000Z,12.45
2022-08-26T19:32:40.000Z,12.68
2022-08-26T19:32:48.000Z,12.13
2022-08-26T19:32:57.000Z,12.7
2022-08-26T19:34:09.000Z,13
2022-08-26T19:36:39.000Z,13
2022-08-26T19:36:50.000Z,15.25
2022-08-26T19:39:01.000Z,14.1
2022-08-26T19:41:26.000Z,13.4
2022-08-26T19:43:52.000Z,13.4
2022-08-26T19:46:29.000Z,13.4
2022-08-26T19:46:39.000Z,13.68
2022-08-26T19:46:48.000Z,13.05
2022-08-26T19:48:47.000Z,13.05
2022-08-26T19:48:57.000Z,12.6
2022-08-26T19:51:12.000Z,12.95
2022-08-26T19:53:37.000Z,13
2022-08-26T19:56:02.000Z,13
2022-08-26T19:56:10.000Z,13.3
2022-08-26T19:58:28.000Z,14.23
2022-08-26T20:01:08.000Z,13.93
2022-08-26T20:03:41.000Z,13.72
2022-08-26T20:05:48.000Z,13.07
2022-08-26T20:08:13.000Z,12.83
2022-08-26T20:10:37.000Z,12.83
2022-08-26T20:10:47.000Z,13.05
2022-08-26T20:13:06.000Z,12.85
2022-08-26T20:15:29.000Z,12.95
2022-08-26T20:17:56.000Z,13.2
2022-08-26T20:22:47.000Z,13.08
2022-08-26T20:25:15.000Z,13.08
2022-08-26T20:27:40.000Z,13.32
2022-08-26T20:30:08.000Z,13.2
2022-08-26T20:32:30.000Z,14.3
2022-08-26T20:34:58.000Z,14.3
2022-08-26T20:35:08.000Z,13.88
2022-08-26T20:37:23.000Z,13.4
2022-08-26T20:39:51.000Z,13.4
2022-08-26T20:42:14.000Z,13.97
2022-08-26T20:44:41.000Z,13.97
2022-08-26T20:47:07.000Z,13.97
2022-08-26T20:47:16.000Z,13.2
2022-08-26T20:47:24.000Z,13.28
2022-08-26T20:49:36.000Z,13.4
2022-08-26T20:52:04.000Z,13.4
2022-08-26T20:52:16.000Z,14.05
2022-08-26T20:54:25.000Z,14.13
2022-08-26T20:56:54.000Z,14.13
2022-08-26T20:57:02.000Z,13.8
2022-08-26T20:59:17.000Z,13.98
2022-08-26T21:01:42.000Z,15.25
2022-08-26T21:04:07.000Z,14.63
2022-08-26T21:06:48.000Z,14.2
2022-08-26T21:09:03.000Z,14.2
2022-08-26T21:09:15.000Z,13.93
2022-08-26T21:11:26.000Z,13.9
2022-08-26T21:13:55.000Z,13.9
2022-08-26T21:16:16.000Z,13.9
2022-08-26T21:16:24.000Z,13.5
2022-08-26T21:18:43.000Z,13.4
2022-08-26T21:21:10.000Z,13.35
2022-08-26T21:23:35.000Z,12.73
2022-08-26T21:28:30.000Z,12.68
2022-08-26T21:31:00.000Z,12.15
2022-08-26T21:33:17.000Z,11.7
2022-08-26T21:35:43.000Z,11.63
2022-08-26T21:38:10.000Z,11.63
2022-08-26T21:38:19.000Z,12.15
2022-08-26T21:40:36.000Z,12.15
2022-08-26T21:40:45.000Z,11.37
2022-08-26T21:43:01.000Z,11.43
2022-08-26T21:45:28.000Z,11.9
2022-08-26T21:47:54.000Z,11.9
2022-08-26T21:50:24.000Z,11.63
2022-08-26T21:52:47.000Z,11.3
2022-08-26T21:55:11.000Z,11.97
2022-08-26T21:57:37.000Z,11.65
2022-08-26T22:00:07.000Z,11.38
2022-08-26T22:02:50.000Z,11.33
2022-08-26T22:04:55.000Z,11.7
2022-08-26T22:07:21.000Z,11.8
2022-08-26T22:09:55.000Z,11.4
2022-08-26T22:12:13.000Z,11.22
2022-08-26T22:14:38.000Z,12.07
2022-08-26T22:17:05.000Z,11.05
2022-08-26T22:19:33.000Z,11.57
2022-08-26T22:21:57.000Z,11.57
2022-08-26T22:22:05.000Z,11.5
2022-08-26T22:24:22.000Z,11.2
2022-08-26T22:26:48.000Z,11.73
2022-08-26T22:29:13.000Z,11.83
2022-08-26T22:31:43.000Z,11.4
2022-08-26T22:34:05.000Z,10.93
2022-08-26T22:36:32.000Z,10.63
2022-08-26T22:38:58.000Z,10.63
2022-08-26T22:39:05.000Z,10.95
2022-08-26T22:41:27.000Z,10.82
2022-08-26T22:43:51.000Z,10.25
2022-08-26T22:46:16.000Z,10.3
2022-08-26T22:48:42.000Z,10.2
2022-08-26T22:51:09.000Z,10.2
2022-08-26T22:51:17.000Z,9.55
2022-08-26T22:53:39.000Z,10.63
2022-08-26T22:55:59.000Z,10.68
2022-08-26T22:58:25.000Z,9.8
2022-08-26T23:00:50.000Z,10.27
2022-08-26T23:03:17.000Z,10.35
2022-08-26T23:08:08.000Z,10.48
2022-08-26T23:10:38.000Z,11.33
2022-08-26T23:13:01.000Z,11.5
2022-08-26T23:15:28.000Z,11.4
2022-08-26T23:17:52.000Z,11.8
2022-08-26T23:20:23.000Z,11.8
2022-08-26T23:20:29.000Z,12.8
2022-08-26T23:22:45.000Z,13.1
2022-08-26T23:25:12.000Z,12.85
2022-08-26T23:27:36.000Z,12.73
2022-08-26T23:30:03.000Z,13
2022-08-26T23:32:28.000Z,13.07
2022-08-26T23:34:54.000Z,12.8
2022-08-26T23:37:22.000Z,13.3
2022-08-26T23:39:49.000Z,13.3
2022-08-26T23:42:17.000Z,13.97
2022-08-26T23:44:38.000Z,13.32
2022-08-26T23:47:05.000Z,13.37
2022-08-26T23:49:30.000Z,12.98
2022-08-26T23:51:56.000Z,13.05
2022-08-26T23:54:24.000Z,13.85
2022-08-26T23:56:49.000Z,13.28
2022-08-26T23:59:15.000Z,13.5
